sensor_id;sensor_type;location;lat;lon;timestamp;P1;durP1;ratioP1;P2;durP2;ratioP2
14872;SDS011;7528;48.576;19.122;2022-11-04T00:03:30;25.23;;;16.83;;
14872;SDS011;7528;48.576;19.122;2022-11-04T00:08:33;22.20;;;16.17;;
14872;SDS011;7528;48.576;19.122;2022-11-04T00:13:36;21.87;;;15.53;;
14872;SDS011;7528;48.576;19.122;2022-11-04T00:18:41;22.33;;;15.40;;
14872;SDS011;7528;48.576;19.122;2022-11-04T00:23:43;22.23;;;15.87;;
14872;SDS011;7528;48.576;19.122;2022-11-04T00:29:03;21.70;;;15.37;;
14872;SDS011;7528;48.576;19.122;2022-11-04T00:34:07;20.33;;;14.83;;
14872;SDS011;7528;48.576;19.122;2022-11-04T00:39:11;22.77;;;15.30;;
14872;SDS011;7528;48.576;19.122;2022-11-04T00:44:14;22.73;;;16.33;;
14872;SDS011;7528;48.576;19.122;2022-11-04T00:49:18;23.80;;;16.33;;
14872;SDS011;7528;48.576;19.122;2022-11-04T00:54:21;22.70;;;16.27;;
14872;SDS011;7528;48.576;19.122;2022-11-04T00:59:24;22.23;;;16.17;;
14872;SDS011;7528;48.576;19.122;2022-11-04T01:04:28;22.57;;;16.93;;
14872;SDS011;7528;48.576;19.122;2022-11-04T01:09:31;22.20;;;16.73;;
14872;SDS011;7528;48.576;19.122;2022-11-04T01:14:34;21.13;;;16.47;;
14872;SDS011;7528;48.576;19.122;2022-11-04T01:19:38;23.30;;;16.57;;
14872;SDS011;7528;48.576;19.122;2022-11-04T01:24:41;26.60;;;17.93;;
14872;SDS011;7528;48.576;19.122;2022-11-04T01:29:44;28.50;;;17.73;;
14872;SDS011;7528;48.576;19.122;2022-11-04T01:34:48;26.00;;;19.30;;
14872;SDS011;7528;48.576;19.122;2022-11-04T01:39:51;24.57;;;16.87;;
14872;SDS011;7528;48.576;19.122;2022-11-04T01:44:54;29.20;;;22.90;;
14872;SDS011;7528;48.576;19.122;2022-11-04T01:50:02;21.03;;;16.57;;
14872;SDS011;7528;48.576;19.122;2022-11-04T01:55:10;23.27;;;17.77;;
14872;SDS011;7528;48.576;19.122;2022-11-04T02:00:17;27.57;;;21.73;;
14872;SDS011;7528;48.576;19.122;2022-11-04T02:05:22;23.17;;;18.13;;
14872;SDS011;7528;48.576;19.122;2022-11-04T02:10:25;21.70;;;16.17;;
14872;SDS011;7528;48.576;19.122;2022-11-04T02:15:34;22.50;;;16.50;;
14872;SDS011;7528;48.576;19.122;2022-11-04T02:20:49;23.57;;;16.80;;
14872;SDS011;7528;48.576;19.122;2022-11-04T02:26:19;22.40;;;16.03;;
14872;SDS011;7528;48.576;19.122;2022-11-04T02:31:45;19.77;;;15.60;;
14872;SDS011;7528;48.576;19.122;2022-11-04T02:36:56;19.13;;;14.70;;
14872;SDS011;7528;48.576;19.122;2022-11-04T02:42:08;21.47;;;15.60;;
14872;SDS011;7528;48.576;19.122;2022-11-04T02:47:18;19.30;;;14.57;;
14872;SDS011;7528;48.576;19.122;2022-11-04T02:52:26;23.93;;;17.33;;
14872;SDS011;7528;48.576;19.122;2022-11-04T02:57:34;26.00;;;16.93;;
14872;SDS011;7528;48.576;19.122;2022-11-04T03:02:43;22.80;;;17.33;;
14872;SDS011;7528;48.576;19.122;2022-11-04T03:07:49;21.83;;;16.53;;
14872;SDS011;7528;48.576;19.122;2022-11-04T03:12:55;21.83;;;15.40;;
14872;SDS011;7528;48.576;19.122;2022-11-04T03:18:06;22.50;;;14.77;;
14872;SDS011;7528;48.576;19.122;2022-11-04T03:23:17;18.60;;;14.40;;
14872;SDS011;7528;48.576;19.122;2022-11-04T03:28:23;19.50;;;14.47;;
14872;SDS011;7528;48.576;19.122;2022-11-04T03:33:37;20.80;;;14.80;;
14872;SDS011;7528;48.576;19.122;2022-11-04T03:38:44;20.30;;;14.43;;
14872;SDS011;7528;48.576;19.122;2022-11-04T03:43:47;17.87;;;14.10;;
14872;SDS011;7528;48.576;19.122;2022-11-04T03:48:51;19.27;;;14.80;;
14872;SDS011;7528;48.576;19.122;2022-11-04T03:53:55;20.77;;;14.93;;
14872;SDS011;7528;48.576;19.122;2022-11-04T03:59:01;23.63;;;16.03;;
14872;SDS011;7528;48.576;19.122;2022-11-04T04:04:15;21.40;;;15.23;;
14872;SDS011;7528;48.576;19.122;2022-11-04T04:09:24;20.27;;;15.20;;
14872;SDS011;7528;48.576;19.122;2022-11-04T04:14:33;20.33;;;15.13;;
14872;SDS011;7528;48.576;19.122;2022-11-04T04:19:43;21.23;;;14.30;;
14872;SDS011;7528;48.576;19.122;2022-11-04T04:24:51;19.27;;;14.77;;
14872;SDS011;7528;48.576;19.122;2022-11-04T04:30:13;18.63;;;14.20;;
14872;SDS011;7528;48.576;19.122;2022-11-04T04:35:18;21.13;;;14.53;;
14872;SDS011;7528;48.576;19.122;2022-11-04T04:40:43;19.23;;;14.07;;
14872;SDS011;7528;48.576;19.122;2022-11-04T04:46:08;19.23;;;14.07;;
14872;SDS011;7528;48.576;19.122;2022-11-04T04:51:13;22.07;;;15.17;;
14872;SDS011;7528;48.576;19.122;2022-11-04T04:56:16;19.07;;;14.77;;
14872;SDS011;7528;48.576;19.122;2022-11-04T05:01:19;18.93;;;14.53;;
14872;SDS011;7528;48.576;19.122;2022-11-04T05:06:23;21.27;;;14.73;;
14872;SDS011;7528;48.576;19.122;2022-11-04T05:11:26;20.30;;;14.13;;
14872;SDS011;7528;48.576;19.122;2022-11-04T05:16:28;20.13;;;14.50;;
14872;SDS011;7528;48.576;19.122;2022-11-04T05:21:32;20.70;;;15.37;;
14872;SDS011;7528;48.576;19.122;2022-11-04T05:26:35;24.37;;;16.23;;
14872;SDS011;7528;48.576;19.122;2022-11-04T05:31:37;21.67;;;14.40;;
14872;SDS011;7528;48.576;19.122;2022-11-04T05:36:42;18.97;;;13.93;;
14872;SDS011;7528;48.576;19.122;2022-11-04T05:41:44;22.47;;;14.33;;
14872;SDS011;7528;48.576;19.122;2022-11-04T05:46:47;20.13;;;14.63;;
14872;SDS011;7528;48.576;19.122;2022-11-04T05:51:50;19.50;;;14.10;;
14872;SDS011;7528;48.576;19.122;2022-11-04T05:56:53;19.40;;;14.00;;
14872;SDS011;7528;48.576;19.122;2022-11-04T06:01:56;20.13;;;14.80;;
14872;SDS011;7528;48.576;19.122;2022-11-04T06:07:00;21.67;;;15.80;;
14872;SDS011;7528;48.576;19.122;2022-11-04T06:12:02;19.30;;;14.10;;
14872;SDS011;7528;48.576;19.122;2022-11-04T06:17:07;20.33;;;14.53;;
14872;SDS011;7528;48.576;19.122;2022-11-04T06:22:16;21.80;;;15.70;;
14872;SDS011;7528;48.576;19.122;2022-11-04T06:27:20;21.00;;;15.30;;
14872;SDS011;7528;48.576;19.122;2022-11-04T06:32:22;21.50;;;15.47;;
14872;SDS011;7528;48.576;19.122;2022-11-04T06:37:27;19.93;;;15.00;;
14872;SDS011;7528;48.576;19.122;2022-11-04T06:42:29;20.77;;;14.30;;
14872;SDS011;7528;48.576;19.122;2022-11-04T06:47:32;22.83;;;15.27;;
14872;SDS011;7528;48.576;19.122;2022-11-04T06:52:36;17.10;;;13.23;;
14872;SDS011;7528;48.576;19.122;2022-11-04T06:57:38;18.80;;;14.53;;
14872;SDS011;7528;48.576;19.122;2022-11-04T07:02:41;18.67;;;13.60;;
14872;SDS011;7528;48.576;19.122;2022-11-04T07:07:45;17.97;;;14.27;;
14872;SDS011;7528;48.576;19.122;2022-11-04T07:12:48;17.93;;;13.30;;
14872;SDS011;7528;48.576;19.122;2022-11-04T07:17:50;19.57;;;14.00;;
14872;SDS011;7528;48.576;19.122;2022-11-04T07:22:54;18.83;;;13.38;;
14872;SDS011;7528;48.576;19.122;2022-11-04T07:27:57;18.08;;;13.20;;
14872;SDS011;7528;48.576;19.122;2022-11-04T07:33:00;16.05;;;13.20;;
14872;SDS011;7528;48.576;19.122;2022-11-04T07:38:04;19.67;;;14.18;;
14872;SDS011;7528;48.576;19.122;2022-11-04T07:43:07;16.05;;;13.38;;
14872;SDS011;7528;48.576;19.122;2022-11-04T07:48:11;18.00;;;13.50;;
14872;SDS011;7528;48.576;19.122;2022-11-04T07:53:15;17.73;;;13.02;;
14872;SDS011;7528;48.576;19.122;2022-11-04T07:58:18;19.48;;;13.40;;
14872;SDS011;7528;48.576;19.122;2022-11-04T08:03:21;17.40;;;13.45;;
14872;SDS011;7528;48.576;19.122;2022-11-04T08:08:26;17.67;;;13.50;;
14872;SDS011;7528;48.576;19.122;2022-11-04T08:13:30;16.25;;;12.93;;
14872;SDS011;7528;48.576;19.122;2022-11-04T08:18:34;16.17;;;12.20;;
14872;SDS011;7528;48.576;19.122;2022-11-04T08:23:39;17.30;;;12.88;;
14872;SDS011;7528;48.576;19.122;2022-11-04T08:28:41;17.10;;;13.23;;
14872;SDS011;7528;48.576;19.122;2022-11-04T08:33:44;16.05;;;11.85;;
14872;SDS011;7528;48.576;19.122;2022-11-04T08:38:49;17.90;;;13.07;;
14872;SDS011;7528;48.576;19.122;2022-11-04T08:43:51;16.07;;;13.50;;
14872;SDS011;7528;48.576;19.122;2022-11-04T08:48:54;17.20;;;13.55;;
14872;SDS011;7528;48.576;19.122;2022-11-04T08:53:59;19.13;;;14.30;;
14872;SDS011;7528;48.576;19.122;2022-11-04T08:59:04;21.33;;;15.07;;
14872;SDS011;7528;48.576;19.122;2022-11-04T09:04:08;20.67;;;14.93;;
14872;SDS011;7528;48.576;19.122;2022-11-04T09:09:14;21.45;;;16.60;;
14872;SDS011;7528;48.576;19.122;2022-11-04T09:14:17;20.92;;;16.95;;
14872;SDS011;7528;48.576;19.122;2022-11-04T09:19:22;24.02;;;17.52;;
14872;SDS011;7528;48.576;19.122;2022-11-04T09:24:27;21.55;;;17.98;;
14872;SDS011;7528;48.576;19.122;2022-11-04T09:29:29;25.58;;;18.90;;
14872;SDS011;7528;48.576;19.122;2022-11-04T09:34:34;24.23;;;18.77;;
14872;SDS011;7528;48.576;19.122;2022-11-04T09:39:38;25.35;;;18.75;;
14872;SDS011;7528;48.576;19.122;2022-11-04T09:44:43;23.88;;;19.00;;
14872;SDS011;7528;48.576;19.122;2022-11-04T09:49:51;22.30;;;17.63;;
14872;SDS011;7528;48.576;19.122;2022-11-04T09:55:00;26.63;;;18.77;;
14872;SDS011;7528;48.576;19.122;2022-11-04T10:00:09;26.38;;;19.40;;
14872;SDS011;7528;48.576;19.122;2022-11-04T10:05:23;23.33;;;19.10;;
14872;SDS011;7528;48.576;19.122;2022-11-04T10:10:41;27.73;;;19.55;;
14872;SDS011;7528;48.576;19.122;2022-11-04T10:15:53;27.47;;;20.30;;
14872;SDS011;7528;48.576;19.122;2022-11-04T10:21:14;27.95;;;21.35;;
14872;SDS011;7528;48.576;19.122;2022-11-04T10:26:29;25.77;;;21.77;;
14872;SDS011;7528;48.576;19.122;2022-11-04T10:31:38;29.00;;;22.37;;
14872;SDS011;7528;48.576;19.122;2022-11-04T10:36:42;28.33;;;20.83;;
14872;SDS011;7528;48.576;19.122;2022-11-04T10:41:50;29.17;;;22.40;;
14872;SDS011;7528;48.576;19.122;2022-11-04T10:46:56;27.70;;;21.93;;
14872;SDS011;7528;48.576;19.122;2022-11-04T10:52:05;26.88;;;21.30;;
14872;SDS011;7528;48.576;19.122;2022-11-04T10:57:10;28.10;;;22.40;;
14872;SDS011;7528;48.576;19.122;2022-11-04T11:02:15;25.00;;;20.17;;
14872;SDS011;7528;48.576;19.122;2022-11-04T11:07:18;29.80;;;24.07;;
14872;SDS011;7528;48.576;19.122;2022-11-04T11:12:24;26.85;;;21.70;;
14872;SDS011;7528;48.576;19.122;2022-11-04T11:17:34;29.15;;;21.63;;
14872;SDS011;7528;48.576;19.122;2022-11-04T11:22:39;29.05;;;21.10;;
14872;SDS011;7528;48.576;19.122;2022-11-04T11:27:46;28.53;;;21.37;;
14872;SDS011;7528;48.576;19.122;2022-11-04T11:32:51;27.83;;;21.92;;
14872;SDS011;7528;48.576;19.122;2022-11-04T11:37:57;27.63;;;22.13;;
14872;SDS011;7528;48.576;19.122;2022-11-04T11:43:04;28.77;;;22.05;;
14872;SDS011;7528;48.576;19.122;2022-11-04T11:48:17;25.60;;;22.03;;
14872;SDS011;7528;48.576;19.122;2022-11-04T11:53:29;27.58;;;22.20;;
14872;SDS011;7528;48.576;19.122;2022-11-04T11:58:36;29.43;;;22.53;;
14872;SDS011;7528;48.576;19.122;2022-11-04T12:03:44;29.90;;;24.00;;
14872;SDS011;7528;48.576;19.122;2022-11-04T12:08:53;28.80;;;23.60;;
14872;SDS011;7528;48.576;19.122;2022-11-04T12:14:07;32.07;;;24.17;;
14872;SDS011;7528;48.576;19.122;2022-11-04T12:19:21;30.00;;;23.50;;
14872;SDS011;7528;48.576;19.122;2022-11-04T12:24:38;30.53;;;24.07;;
14872;SDS011;7528;48.576;19.122;2022-11-04T12:29:59;32.83;;;24.90;;
14872;SDS011;7528;48.576;19.122;2022-11-04T12:35:09;28.97;;;23.70;;
14872;SDS011;7528;48.576;19.122;2022-11-04T12:40:24;30.50;;;23.87;;
14872;SDS011;7528;48.576;19.122;2022-11-04T12:45:33;30.30;;;22.33;;
14872;SDS011;7528;48.576;19.122;2022-11-04T12:50:52;31.50;;;24.80;;
14872;SDS011;7528;48.576;19.122;2022-11-04T12:56:05;29.50;;;22.33;;
14872;SDS011;7528;48.576;19.122;2022-11-04T13:01:12;29.60;;;22.07;;
14872;SDS011;7528;48.576;19.122;2022-11-04T13:06:20;29.50;;;23.43;;
14872;SDS011;7528;48.576;19.122;2022-11-04T13:11:27;38.37;;;27.83;;
14872;SDS011;7528;48.576;19.122;2022-11-04T13:16:37;29.70;;;22.83;;
14872;SDS011;7528;48.576;19.122;2022-11-04T13:21:42;29.60;;;23.63;;
14872;SDS011;7528;48.576;19.122;2022-11-04T13:26:45;32.13;;;25.23;;
14872;SDS011;7528;48.576;19.122;2022-11-04T13:31:50;30.20;;;24.07;;
14872;SDS011;7528;48.576;19.122;2022-11-04T13:36:57;28.50;;;22.90;;
14872;SDS011;7528;48.576;19.122;2022-11-04T13:42:21;28.93;;;22.57;;
14872;SDS011;7528;48.576;19.122;2022-11-04T13:47:46;28.57;;;23.00;;
14872;SDS011;7528;48.576;19.122;2022-11-04T13:52:51;27.53;;;20.80;;
14872;SDS011;7528;48.576;19.122;2022-11-04T13:57:54;28.23;;;21.92;;
14872;SDS011;7528;48.576;19.122;2022-11-04T14:03:01;28.53;;;22.93;;
14872;SDS011;7528;48.576;19.122;2022-11-04T14:08:38;28.27;;;22.27;;
14872;SDS011;7528;48.576;19.122;2022-11-04T14:14:24;28.43;;;22.17;;
14872;SDS011;7528;48.576;19.122;2022-11-04T14:25:00;30.37;;;22.07;;
14872;SDS011;7528;48.576;19.122;2022-11-04T14:30:26;27.97;;;21.73;;
14872;SDS011;7528;48.576;19.122;2022-11-04T14:35:38;28.70;;;22.10;;
14872;SDS011;7528;48.576;19.122;2022-11-04T14:40:46;27.02;;;22.95;;
14872;SDS011;7528;48.576;19.122;2022-11-04T14:45:50;28.60;;;22.23;;
14872;SDS011;7528;48.576;19.122;2022-11-04T14:50:56;28.07;;;21.87;;
14872;SDS011;7528;48.576;19.122;2022-11-04T14:56:03;33.20;;;25.70;;
14872;SDS011;7528;48.576;19.122;2022-11-04T15:01:08;30.77;;;25.43;;
14872;SDS011;7528;48.576;19.122;2022-11-04T15:06:23;44.03;;;35.33;;
14872;SDS011;7528;48.576;19.122;2022-11-04T15:11:28;30.17;;;25.70;;
14872;SDS011;7528;48.576;19.122;2022-11-04T15:16:49;32.00;;;25.87;;
14872;SDS011;7528;48.576;19.122;2022-11-04T15:21:57;32.20;;;27.70;;
14872;SDS011;7528;48.576;19.122;2022-11-04T15:27:03;34.70;;;29.73;;
14872;SDS011;7528;48.576;19.122;2022-11-04T15:32:14;33.33;;;29.58;;
14872;SDS011;7528;48.576;19.122;2022-11-04T15:37:19;42.45;;;38.33;;
14872;SDS011;7528;48.576;19.122;2022-11-04T15:42:24;30.48;;;25.02;;
14872;SDS011;7528;48.576;19.122;2022-11-04T15:47:39;31.23;;;24.27;;
14872;SDS011;7528;48.576;19.122;2022-11-04T15:52:46;27.73;;;22.80;;
14872;SDS011;7528;48.576;19.122;2022-11-04T15:57:51;29.67;;;25.90;;
14872;SDS011;7528;48.576;19.122;2022-11-04T16:02:56;30.70;;;24.27;;
14872;SDS011;7528;48.576;19.122;2022-11-04T16:08:15;31.55;;;25.55;;
14872;SDS011;7528;48.576;19.122;2022-11-04T16:13:21;29.83;;;24.37;;
14872;SDS011;7528;48.576;19.122;2022-11-04T16:18:27;28.57;;;23.57;;
14872;SDS011;7528;48.576;19.122;2022-11-04T16:23:41;28.13;;;22.87;;
14872;SDS011;7528;48.576;19.122;2022-11-04T16:28:47;27.53;;;22.40;;
14872;SDS011;7528;48.576;19.122;2022-11-04T16:33:55;28.23;;;22.73;;
14872;SDS011;7528;48.576;19.122;2022-11-04T16:38:59;29.03;;;22.60;;
14872;SDS011;7528;48.576;19.122;2022-11-04T16:44:04;27.63;;;21.80;;
14872;SDS011;7528;48.576;19.122;2022-11-04T16:49:16;29.33;;;25.73;;
14872;SDS011;7528;48.576;19.122;2022-11-04T16:56:00;26.47;;;21.37;;
14872;SDS011;7528;48.576;19.122;2022-11-04T17:01:03;25.03;;;20.83;;
14872;SDS011;7528;48.576;19.122;2022-11-04T17:06:05;24.13;;;20.20;;
14872;SDS011;7528;48.576;19.122;2022-11-04T17:11:10;25.03;;;21.20;;
14872;SDS011;7528;48.576;19.122;2022-11-04T17:16:13;29.97;;;24.70;;
14872;SDS011;7528;48.576;19.122;2022-11-04T17:21:15;27.13;;;22.40;;
14872;SDS011;7528;48.576;19.122;2022-11-04T17:26:22;29.27;;;21.50;;
14872;SDS011;7528;48.576;19.122;2022-11-04T17:31:24;27.87;;;22.33;;
14872;SDS011;7528;48.576;19.122;2022-11-04T17:36:28;26.43;;;22.53;;
14872;SDS011;7528;48.576;19.122;2022-11-04T17:41:32;27.53;;;21.60;;
14872;SDS011;7528;48.576;19.122;2022-11-04T17:46:51;28.57;;;22.50;;
14872;SDS011;7528;48.576;19.122;2022-11-04T17:51:55;29.13;;;22.07;;
14872;SDS011;7528;48.576;19.122;2022-11-04T17:57:01;33.27;;;23.43;;
14872;SDS011;7528;48.576;19.122;2022-11-04T18:02:04;29.87;;;21.90;;
14872;SDS011;7528;48.576;19.122;2022-11-04T18:07:06;30.47;;;24.13;;
14872;SDS011;7528;48.576;19.122;2022-11-04T18:12:10;30.10;;;23.50;;
14872;SDS011;7528;48.576;19.122;2022-11-04T18:17:30;40.70;;;22.53;;
14872;SDS011;7528;48.576;19.122;2022-11-04T18:22:32;28.23;;;21.53;;
14872;SDS011;7528;48.576;19.122;2022-11-04T18:27:37;29.92;;;26.80;;
14872;SDS011;7528;48.576;19.122;2022-11-04T18:32:39;26.07;;;22.10;;
14872;SDS011;7528;48.576;19.122;2022-11-04T18:37:42;27.67;;;22.33;;
14872;SDS011;7528;48.576;19.122;2022-11-04T18:42:46;28.23;;;21.50;;
14872;SDS011;7528;48.576;19.122;2022-11-04T18:47:50;27.93;;;22.00;;
14872;SDS011;7528;48.576;19.122;2022-11-04T18:52:53;35.23;;;29.80;;
14872;SDS011;7528;48.576;19.122;2022-11-04T18:57:57;31.37;;;26.13;;
14872;SDS011;7528;48.576;19.122;2022-11-04T19:02:59;36.07;;;29.37;;
14872;SDS011;7528;48.576;19.122;2022-11-04T19:08:03;36.10;;;29.37;;
14872;SDS011;7528;48.576;19.122;2022-11-04T19:13:07;34.93;;;27.43;;
14872;SDS011;7528;48.576;19.122;2022-11-04T19:18:20;41.53;;;31.23;;
14872;SDS011;7528;48.576;19.122;2022-11-04T19:23:22;34.90;;;27.03;;
14872;SDS011;7528;48.576;19.122;2022-11-04T19:28:26;30.33;;;24.90;;
14872;SDS011;7528;48.576;19.122;2022-11-04T19:33:29;29.53;;;23.67;;
14872;SDS011;7528;48.576;19.122;2022-11-04T19:38:31;35.73;;;27.57;;
14872;SDS011;7528;48.576;19.122;2022-11-04T19:43:36;32.63;;;25.67;;
14872;SDS011;7528;48.576;19.122;2022-11-04T19:48:39;36.33;;;28.10;;
14872;SDS011;7528;48.576;19.122;2022-11-04T19:53:42;36.07;;;27.97;;
14872;SDS011;7528;48.576;19.122;2022-11-04T19:58:47;30.00;;;25.23;;
14872;SDS011;7528;48.576;19.122;2022-11-04T20:03:49;28.27;;;22.73;;
14872;SDS011;7528;48.576;19.122;2022-11-04T20:08:52;29.97;;;24.93;;
14872;SDS011;7528;48.576;19.122;2022-11-04T20:13:56;37.63;;;32.77;;
14872;SDS011;7528;48.576;19.122;2022-11-04T20:18:59;66.67;;;49.73;;
14872;SDS011;7528;48.576;19.122;2022-11-04T20:24:05;46.40;;;37.57;;
14872;SDS011;7528;48.576;19.122;2022-11-04T20:29:10;37.17;;;30.33;;
14872;SDS011;7528;48.576;19.122;2022-11-04T20:34:15;42.27;;;34.30;;
14872;SDS011;7528;48.576;19.122;2022-11-04T20:39:18;39.50;;;32.33;;
14872;SDS011;7528;48.576;19.122;2022-11-04T20:44:22;53.72;;;40.55;;
14872;SDS011;7528;48.576;19.122;2022-11-04T20:49:25;39.47;;;32.17;;
14872;SDS011;7528;48.576;19.122;2022-11-04T20:54:27;42.23;;;34.70;;
14872;SDS011;7528;48.576;19.122;2022-11-04T20:59:31;41.00;;;34.43;;
14872;SDS011;7528;48.576;19.122;2022-11-04T21:04:34;48.63;;;39.17;;
14872;SDS011;7528;48.576;19.122;2022-11-04T21:09:37;54.92;;;43.42;;
14872;SDS011;7528;48.576;19.122;2022-11-04T21:14:40;42.77;;;35.37;;
14872;SDS011;7528;48.576;19.122;2022-11-04T21:19:43;63.73;;;51.07;;
14872;SDS011;7528;48.576;19.122;2022-11-04T21:24:45;48.67;;;39.90;;
14872;SDS011;7528;48.576;19.122;2022-11-04T21:29:49;55.00;;;44.17;;
14872;SDS011;7528;48.576;19.122;2022-11-04T21:34:52;50.17;;;40.80;;
14872;SDS011;7528;48.576;19.122;2022-11-04T21:39:54;50.70;;;39.60;;
14872;SDS011;7528;48.576;19.122;2022-11-04T21:44:58;38.27;;;31.67;;
14872;SDS011;7528;48.576;19.122;2022-11-04T21:50:01;38.20;;;32.40;;
14872;SDS011;7528;48.576;19.122;2022-11-04T21:55:04;37.17;;;30.57;;
14872;SDS011;7528;48.576;19.122;2022-11-04T22:00:10;31.50;;;26.30;;
14872;SDS011;7528;48.576;19.122;2022-11-04T22:05:14;37.83;;;29.23;;
14872;SDS011;7528;48.576;19.122;2022-11-04T22:10:16;46.17;;;36.60;;
14872;SDS011;7528;48.576;19.122;2022-11-04T22:15:20;42.40;;;31.17;;
14872;SDS011;7528;48.576;19.122;2022-11-04T22:20:37;39.57;;;31.87;;
14872;SDS011;7528;48.576;19.122;2022-11-04T22:25:39;38.93;;;31.03;;
14872;SDS011;7528;48.576;19.122;2022-11-04T22:30:44;37.57;;;30.20;;
14872;SDS011;7528;48.576;19.122;2022-11-04T22:35:46;45.83;;;36.33;;
14872;SDS011;7528;48.576;19.122;2022-11-04T22:40:52;38.73;;;31.47;;
14872;SDS011;7528;48.576;19.122;2022-11-04T22:45:57;34.67;;;28.23;;
14872;SDS011;7528;48.576;19.122;2022-11-04T22:51:04;36.57;;;27.43;;
14872;SDS011;7528;48.576;19.122;2022-11-04T22:56:10;36.53;;;29.47;;
14872;SDS011;7528;48.576;19.122;2022-11-04T23:01:15;37.67;;;29.43;;
14872;SDS011;7528;48.576;19.122;2022-11-04T23:06:19;39.47;;;31.17;;
14872;SDS011;7528;48.576;19.122;2022-11-04T23:11:22;34.90;;;27.87;;
14872;SDS011;7528;48.576;19.122;2022-11-04T23:16:45;32.60;;;25.60;;
14872;SDS011;7528;48.576;19.122;2022-11-04T23:22:07;33.67;;;26.00;;
14872;SDS011;7528;48.576;19.122;2022-11-04T23:27:27;36.35;;;27.90;;
14872;SDS011;7528;48.576;19.122;2022-11-04T23:32:49;36.40;;;27.97;;
14872;SDS011;7528;48.576;19.122;2022-11-04T23:37:55;38.20;;;29.93;;
14872;SDS011;7528;48.576;19.122;2022-11-04T23:42:58;42.33;;;31.50;;
14872;SDS011;7528;48.576;19.122;2022-11-04T23:48:02;38.33;;;30.20;;
14872;SDS011;7528;48.576;19.122;2022-11-04T23:53:23;35.67;;;29.30;;
14872;SDS011;7528;48.576;19.122;2022-11-04T23:58:43;39.67;;;30.90;;
